sensor_id;sensor_type;location;lat;lon;timestamp;pressure;altitude;pressure_sealevel;temperature;humidity
20009;BME280;10165;42.662;23.260;2023-04-03T00:00:49;93506.03;;;12.43;48.23
20009;BME280;10165;42.662;23.260;2023-04-03T00:03:18;93499.16;;;12.46;48.20
20009;BME280;10165;42.662;23.260;2023-04-03T00:05:46;93504.50;;;12.42;48.43
20009;BME280;10165;42.662;23.260;2023-04-03T00:08:13;93493.13;;;12.12;48.94
20009;BME280;10165;42.662;23.260;2023-04-03T00:10:39;93497.09;;;12.25;48.79
20009;BME280;10165;42.662;23.260;2023-04-03T00:13:07;93488.28;;;12.25;48.86
20009;BME280;10165;42.662;23.260;2023-04-03T00:15:34;93488.38;;;12.39;48.46
20009;BME280;10165;42.662;23.260;2023-04-03T00:18:03;93485.41;;;12.48;48.37
20009;BME280;10165;42.662;23.260;2023-04-03T00:20:29;93489.41;;;12.24;48.88
20009;BME280;10165;42.662;23.260;2023-04-03T00:22:56;93480.25;;;12.25;49.06
20009;BME280;10165;42.662;23.260;2023-04-03T00:25:23;93486.34;;;12.22;49.04
20009;BME280;10165;42.662;23.260;2023-04-03T00:27:51;93479.59;;;12.38;48.47
20009;BME280;10165;42.662;23.260;2023-04-03T00:30:19;93481.56;;;12.45;48.32
20009;BME280;10165;42.662;23.260;2023-04-03T00:32:51;93484.09;;;12.27;48.63
20009;BME280;10165;42.662;23.260;2023-04-03T00:35:19;93474.56;;;12.30;48.51
20009;BME280;10165;42.662;23.260;2023-04-03T00:37:47;93484.00;;;12.17;49.10
20009;BME280;10165;42.662;23.260;2023-04-03T00:40:15;93484.03;;;12.20;49.00
20009;BME280;10165;42.662;23.260;2023-04-03T00:42:44;93483.69;;;12.25;48.83
20009;BME280;10165;42.662;23.260;2023-04-03T00:45:39;93485.28;;;12.30;48.51
20009;BME280;10165;42.662;23.260;2023-04-03T00:48:08;93485.34;;;12.00;49.66
20009;BME280;10165;42.662;23.260;2023-04-03T00:50:38;93477.78;;;12.06;49.39
20009;BME280;10165;42.662;23.260;2023-04-03T00:53:09;93477.13;;;11.79;50.48
20009;BME280;10165;42.662;23.260;2023-04-03T00:55:37;93481.91;;;11.66;51.25
20009;BME280;10165;42.662;23.260;2023-04-03T00:58:05;93481.38;;;11.83;50.11
20009;BME280;10165;42.662;23.260;2023-04-03T01:00:34;93497.41;;;11.50;51.03
20009;BME280;10165;42.662;23.260;2023-04-03T01:03:02;93492.59;;;11.63;50.93
20009;BME280;10165;42.662;23.260;2023-04-03T01:05:29;93505.91;;;11.26;51.67
20009;BME280;10165;42.662;23.260;2023-04-03T01:07:56;93494.44;;;10.95;52.88
20009;BME280;10165;42.662;23.260;2023-04-03T01:10:23;93499.56;;;11.08;53.05
20009;BME280;10165;42.662;23.260;2023-04-03T01:12:52;93490.72;;;11.33;51.94
20009;BME280;10165;42.662;23.260;2023-04-03T01:15:22;93498.56;;;11.82;50.66
20009;BME280;10165;42.662;23.260;2023-04-03T01:17:54;93496.22;;;12.14;49.76
20009;BME280;10165;42.662;23.260;2023-04-03T01:25:44;93490.50;;;11.79;50.50
20009;BME280;10165;42.662;23.260;2023-04-03T01:28:21;93490.91;;;11.51;51.05
20009;BME280;10165;42.662;23.260;2023-04-03T01:30:53;93495.09;;;11.48;51.61
20009;BME280;10165;42.662;23.260;2023-04-03T01:33:24;93496.75;;;11.27;52.00
20009;BME280;10165;42.662;23.260;2023-04-03T01:35:51;93495.81;;;11.16;52.53
20009;BME280;10165;42.662;23.260;2023-04-03T01:38:18;93497.31;;;11.13;52.85
20009;BME280;10165;42.662;23.260;2023-04-03T01:40:44;93485.38;;;11.33;52.37
20009;BME280;10165;42.662;23.260;2023-04-03T01:43:11;93488.13;;;11.40;52.19
20009;BME280;10165;42.662;23.260;2023-04-03T01:45:38;93487.66;;;11.35;52.39
20009;BME280;10165;42.662;23.260;2023-04-03T01:48:05;93483.78;;;11.29;52.65
20009;BME280;10165;42.662;23.260;2023-04-03T01:50:32;93490.09;;;11.47;52.13
20009;BME280;10165;42.662;23.260;2023-04-03T01:52:58;93497.75;;;11.45;51.97
20009;BME280;10165;42.662;23.260;2023-04-03T01:55:25;93493.34;;;11.30;52.24
20009;BME280;10165;42.662;23.260;2023-04-03T01:57:52;93491.53;;;11.08;53.12
20009;BME280;10165;42.662;23.260;2023-04-03T02:00:19;93482.59;;;10.96;53.03
20009;BME280;10165;42.662;23.260;2023-04-03T02:02:45;93489.47;;;10.97;53.49
20009;BME280;10165;42.662;23.260;2023-04-03T02:05:12;93478.94;;;10.82;53.76
20009;BME280;10165;42.662;23.260;2023-04-03T02:07:39;93478.50;;;11.02;53.55
20009;BME280;10165;42.662;23.260;2023-04-03T02:10:06;93488.50;;;10.30;55.74
20009;BME280;10165;42.662;23.260;2023-04-03T02:12:32;93481.72;;;10.89;54.28
20009;BME280;10165;42.662;23.260;2023-04-03T02:14:59;93483.06;;;10.49;54.98
20009;BME280;10165;42.662;23.260;2023-04-03T02:17:27;93488.31;;;10.69;54.47
20009;BME280;10165;42.662;23.260;2023-04-03T02:19:54;93487.66;;;11.05;53.58
20009;BME280;10165;42.662;23.260;2023-04-03T02:22:21;93481.19;;;11.06;53.39
20009;BME280;10165;42.662;23.260;2023-04-03T02:24:47;93481.75;;;11.19;53.12
20009;BME280;10165;42.662;23.260;2023-04-03T02:27:14;93478.19;;;11.08;53.11
20009;BME280;10165;42.662;23.260;2023-04-03T02:29:41;93477.75;;;11.06;53.10
20009;BME280;10165;42.662;23.260;2023-04-03T02:32:07;93473.09;;;10.99;53.59
20009;BME280;10165;42.662;23.260;2023-04-03T02:34:34;93471.50;;;10.94;53.86
20009;BME280;10165;42.662;23.260;2023-04-03T02:37:01;93480.81;;;10.29;55.02
20009;BME280;10165;42.662;23.260;2023-04-03T02:39:27;93473.16;;;10.76;54.44
20009;BME280;10165;42.662;23.260;2023-04-03T02:41:54;93471.66;;;10.79;54.12
20009;BME280;10165;42.662;23.260;2023-04-03T02:44:21;93474.69;;;10.77;54.05
20009;BME280;10165;42.662;23.260;2023-04-03T02:46:47;93474.00;;;10.80;54.26
20009;BME280;10165;42.662;23.260;2023-04-03T02:49:14;93469.56;;;10.65;54.57
20009;BME280;10165;42.662;23.260;2023-04-03T02:51:41;93465.38;;;10.15;55.79
20009;BME280;10165;42.662;23.260;2023-04-03T02:54:08;93457.44;;;10.71;54.69
20009;BME280;10165;42.662;23.260;2023-04-03T02:56:35;93456.03;;;10.54;54.43
20009;BME280;10165;42.662;23.260;2023-04-03T02:59:02;93461.22;;;10.18;56.08
20009;BME280;10165;42.662;23.260;2023-04-03T03:01:28;93454.56;;;10.57;55.23
20009;BME280;10165;42.662;23.260;2023-04-03T03:03:59;93452.59;;;10.54;54.92
20009;BME280;10165;42.662;23.260;2023-04-03T03:06:26;93452.09;;;10.71;54.26
20009;BME280;10165;42.662;23.260;2023-04-03T03:08:53;93444.03;;;10.68;54.52
20009;BME280;10165;42.662;23.260;2023-04-03T03:11:20;93454.69;;;10.64;54.58
20009;BME280;10165;42.662;23.260;2023-04-03T03:13:48;93452.34;;;10.63;54.52
20009;BME280;10165;42.662;23.260;2023-04-03T03:16:14;93443.75;;;10.73;54.11
20009;BME280;10165;42.662;23.260;2023-04-03T03:18:41;93444.97;;;10.79;53.99
20009;BME280;10165;42.662;23.260;2023-04-03T03:21:09;93445.19;;;10.96;53.44
20009;BME280;10165;42.662;23.260;2023-04-03T03:23:37;93447.53;;;10.72;53.88
20009;BME280;10165;42.662;23.260;2023-04-03T03:26:06;93450.84;;;10.91;53.74
20009;BME280;10165;42.662;23.260;2023-04-03T03:28:33;93437.00;;;10.56;54.40
20009;BME280;10165;42.662;23.260;2023-04-03T03:31:00;93450.41;;;10.33;55.43
20009;BME280;10165;42.662;23.260;2023-04-03T03:33:27;93443.78;;;10.04;56.18
20009;BME280;10165;42.662;23.260;2023-04-03T03:35:54;93444.09;;;10.45;55.38
20009;BME280;10165;42.662;23.260;2023-04-03T03:38:21;93449.69;;;10.63;54.87
20009;BME280;10165;42.662;23.260;2023-04-03T03:40:49;93449.47;;;10.75;54.44
20009;BME280;10165;42.662;23.260;2023-04-03T03:43:16;93452.41;;;10.66;54.83
20009;BME280;10165;42.662;23.260;2023-04-03T03:45:44;93447.28;;;10.80;54.38
20009;BME280;10165;42.662;23.260;2023-04-03T03:48:12;93443.47;;;10.55;54.73
20009;BME280;10165;42.662;23.260;2023-04-03T03:50:39;93444.41;;;10.17;56.16
20009;BME280;10165;42.662;23.260;2023-04-03T03:53:05;93454.09;;;10.25;56.15
20009;BME280;10165;42.662;23.260;2023-04-03T03:55:32;93457.44;;;10.45;55.65
20009;BME280;10165;42.662;23.260;2023-04-03T03:57:59;93452.97;;;10.52;55.37
20009;BME280;10165;42.662;23.260;2023-04-03T04:00:28;93458.16;;;10.42;55.80
20009;BME280;10165;42.662;23.260;2023-04-03T04:02:54;93456.13;;;10.35;55.92
20009;BME280;10165;42.662;23.260;2023-04-03T04:05:24;93453.47;;;10.35;56.17
20009;BME280;10165;42.662;23.260;2023-04-03T04:07:51;93450.31;;;10.52;55.54
20009;BME280;10165;42.662;23.260;2023-04-03T04:10:18;93448.84;;;10.32;55.52
20009;BME280;10165;42.662;23.260;2023-04-03T04:12:44;93456.03;;;10.54;55.22
20009;BME280;10165;42.662;23.260;2023-04-03T04:15:11;93463.56;;;10.45;55.14
20009;BME280;10165;42.662;23.260;2023-04-03T04:17:38;93470.59;;;10.57;55.19
20009;BME280;10165;42.662;23.260;2023-04-03T04:20:05;93464.13;;;10.84;54.32
20009;BME280;10165;42.662;23.260;2023-04-03T04:22:32;93469.47;;;10.84;54.47
20009;BME280;10165;42.662;23.260;2023-04-03T04:24:59;93479.28;;;10.77;54.65
20009;BME280;10165;42.662;23.260;2023-04-03T04:27:26;93460.94;;;10.75;54.44
20009;BME280;10165;42.662;23.260;2023-04-03T04:29:52;93462.22;;;10.59;54.99
20009;BME280;10165;42.662;23.260;2023-04-03T04:32:19;93463.88;;;10.18;55.72
20009;BME280;10165;42.662;23.260;2023-04-03T04:34:45;93475.66;;;10.17;56.75
20009;BME280;10165;42.662;23.260;2023-04-03T04:37:12;93481.09;;;10.46;55.92
20009;BME280;10165;42.662;23.260;2023-04-03T04:39:39;93477.72;;;10.76;55.46
20009;BME280;10165;42.662;23.260;2023-04-03T04:42:05;93485.13;;;10.60;55.96
20009;BME280;10165;42.662;23.260;2023-04-03T04:44:33;93485.53;;;9.93;57.24
20009;BME280;10165;42.662;23.260;2023-04-03T04:47:00;93485.06;;;10.11;57.81
20009;BME280;10165;42.662;23.260;2023-04-03T04:49:27;93488.88;;;10.55;56.37
20009;BME280;10165;42.662;23.260;2023-04-03T04:51:53;93487.72;;;10.30;56.87
20009;BME280;10165;42.662;23.260;2023-04-03T04:54:20;93491.34;;;9.99;57.68
20009;BME280;10165;42.662;23.260;2023-04-03T04:56:47;93486.53;;;10.08;58.41
20009;BME280;10165;42.662;23.260;2023-04-03T04:59:13;93496.56;;;10.60;56.77
20009;BME280;10165;42.662;23.260;2023-04-03T05:01:40;93505.59;;;10.52;57.21
20009;BME280;10165;42.662;23.260;2023-04-03T05:04:07;93502.00;;;10.93;56.19
20009;BME280;10165;42.662;23.260;2023-04-03T05:06:33;93501.75;;;11.02;55.74
20009;BME280;10165;42.662;23.260;2023-04-03T05:09:01;93498.66;;;11.00;56.11
20009;BME280;10165;42.662;23.260;2023-04-03T05:11:28;93507.97;;;11.10;55.89
20009;BME280;10165;42.662;23.260;2023-04-03T05:13:55;93507.75;;;11.22;55.71
20009;BME280;10165;42.662;23.260;2023-04-03T05:16:21;93508.69;;;11.07;56.46
20009;BME280;10165;42.662;23.260;2023-04-03T05:18:48;93509.81;;;11.06;56.63
20009;BME280;10165;42.662;23.260;2023-04-03T05:21:15;93510.72;;;11.17;56.79
20009;BME280;10165;42.662;23.260;2023-04-03T05:23:42;93510.00;;;11.20;56.33
20009;BME280;10165;42.662;23.260;2023-04-03T05:26:08;93518.25;;;11.08;57.06
20009;BME280;10165;42.662;23.260;2023-04-03T05:28:35;93522.22;;;10.91;57.40
20009;BME280;10165;42.662;23.260;2023-04-03T05:31:02;93514.31;;;10.98;57.16
20009;BME280;10165;42.662;23.260;2023-04-03T05:33:29;93520.22;;;10.84;57.31
20009;BME280;10165;42.662;23.260;2023-04-03T05:35:56;93512.81;;;10.74;57.66
20009;BME280;10165;42.662;23.260;2023-04-03T05:38:23;93512.84;;;10.78;57.45
20009;BME280;10165;42.662;23.260;2023-04-03T05:40:50;93512.81;;;10.74;57.38
20009;BME280;10165;42.662;23.260;2023-04-03T05:43:16;93511.06;;;10.85;57.59
20009;BME280;10165;42.662;23.260;2023-04-03T05:45:43;93517.19;;;10.86;57.88
20009;BME280;10165;42.662;23.260;2023-04-03T05:48:12;93509.44;;;11.03;57.22
20009;BME280;10165;42.662;23.260;2023-04-03T05:50:39;93514.50;;;10.37;58.52
20009;BME280;10165;42.662;23.260;2023-04-03T05:53:16;93511.06;;;10.85;57.38
20009;BME280;10165;42.662;23.260;2023-04-03T05:55:44;93511.84;;;11.16;56.77
20009;BME280;10165;42.662;23.260;2023-04-03T05:58:11;93502.44;;;10.95;56.77
20009;BME280;10165;42.662;23.260;2023-04-03T06:00:38;93503.25;;;10.99;56.50
20009;BME280;10165;42.662;23.260;2023-04-03T06:03:05;93509.69;;;11.25;56.28
20009;BME280;10165;42.662;23.260;2023-04-03T06:05:33;93501.63;;;10.91;56.63
20009;BME280;10165;42.662;23.260;2023-04-03T06:07:59;93504.91;;;11.08;56.70
20009;BME280;10165;42.662;23.260;2023-04-03T06:10:26;93495.03;;;10.85;56.62
20009;BME280;10165;42.662;23.260;2023-04-03T06:12:53;93488.03;;;10.51;57.05
20009;BME280;10165;42.662;23.260;2023-04-03T06:15:20;93490.56;;;10.18;58.33
20009;BME280;10165;42.662;23.260;2023-04-03T06:17:47;93477.88;;;10.34;58.13
20009;BME280;10165;42.662;23.260;2023-04-03T06:20:14;93479.41;;;10.35;57.80
20009;BME280;10165;42.662;23.260;2023-04-03T06:22:41;93483.19;;;10.34;58.39
20009;BME280;10165;42.662;23.260;2023-04-03T06:25:08;93497.31;;;10.12;58.54
20009;BME280;10165;42.662;23.260;2023-04-03T06:27:36;93503.16;;;9.98;59.82
20009;BME280;10165;42.662;23.260;2023-04-03T06:30:04;93489.88;;;10.47;58.84
20009;BME280;10165;42.662;23.260;2023-04-03T06:32:31;93486.56;;;10.53;57.95
20009;BME280;10165;42.662;23.260;2023-04-03T06:34:57;93492.34;;;10.85;57.83
20009;BME280;10165;42.662;23.260;2023-04-03T06:37:24;93487.09;;;10.40;58.52
20009;BME280;10165;42.662;23.260;2023-04-03T06:39:58;93497.69;;;10.85;57.83
20009;BME280;10165;42.662;23.260;2023-04-03T06:42:26;93504.28;;;10.65;58.05
20009;BME280;10165;42.662;23.260;2023-04-03T06:44:53;93494.09;;;11.27;56.92
20009;BME280;10165;42.662;23.260;2023-04-03T06:47:20;93495.31;;;10.77;57.52
20009;BME280;10165;42.662;23.260;2023-04-03T06:49:47;93490.97;;;11.25;56.55
20009;BME280;10165;42.662;23.260;2023-04-03T06:52:14;93512.09;;;11.63;54.74
20009;BME280;10165;42.662;23.260;2023-04-03T06:54:40;93508.78;;;11.73;54.98
20009;BME280;10165;42.662;23.260;2023-04-03T06:57:08;93518.22;;;11.34;55.52
20009;BME280;10165;42.662;23.260;2023-04-03T06:59:35;93515.13;;;11.32;56.12
20009;BME280;10165;42.662;23.260;2023-04-03T07:02:02;93516.31;;;11.64;55.16
20009;BME280;10165;42.662;23.260;2023-04-03T07:04:29;93515.00;;;11.51;54.23
20009;BME280;10165;42.662;23.260;2023-04-03T07:06:56;93512.78;;;11.57;54.93
20009;BME280;10165;42.662;23.260;2023-04-03T07:09:23;93512.16;;;12.04;53.54
20009;BME280;10165;42.662;23.260;2023-04-03T07:11:49;93511.00;;;12.01;53.77
20009;BME280;10165;42.662;23.260;2023-04-03T07:14:16;93496.84;;;11.34;54.69
20009;BME280;10165;42.662;23.260;2023-04-03T07:16:43;93488.56;;;11.76;54.12
20009;BME280;10165;42.662;23.260;2023-04-03T07:19:09;93496.19;;;12.11;52.83
20009;BME280;10165;42.662;23.260;2023-04-03T07:21:36;93502.06;;;11.86;53.50
20009;BME280;10165;42.662;23.260;2023-04-03T07:24:03;93490.25;;;12.31;52.43
20009;BME280;10165;42.662;23.260;2023-04-03T07:26:29;93497.16;;;11.62;54.44
20009;BME280;10165;42.662;23.260;2023-04-03T07:28:56;93489.88;;;11.59;55.03
20009;BME280;10165;42.662;23.260;2023-04-03T07:31:23;93480.63;;;12.27;53.10
20009;BME280;10165;42.662;23.260;2023-04-03T07:33:51;93486.78;;;11.87;53.16
20009;BME280;10165;42.662;23.260;2023-04-03T07:36:20;93492.97;;;11.94;53.46
20009;BME280;10165;42.662;23.260;2023-04-03T07:38:47;93478.47;;;11.95;52.33
20009;BME280;10165;42.662;23.260;2023-04-03T07:41:16;93478.94;;;12.08;52.58
20009;BME280;10165;42.662;23.260;2023-04-03T07:43:44;93472.50;;;11.76;53.19
20009;BME280;10165;42.662;23.260;2023-04-03T07:46:11;93458.75;;;11.77;53.81
20009;BME280;10165;42.662;23.260;2023-04-03T07:48:39;93465.50;;;12.45;52.47
20009;BME280;10165;42.662;23.260;2023-04-03T07:51:05;93455.59;;;12.49;52.31
20009;BME280;10165;42.662;23.260;2023-04-03T07:53:32;93461.34;;;12.55;51.67
20009;BME280;10165;42.662;23.260;2023-04-03T07:55:59;93463.31;;;12.61;51.02
20009;BME280;10165;42.662;23.260;2023-04-03T07:58:27;93458.63;;;12.48;51.76
20009;BME280;10165;42.662;23.260;2023-04-03T08:00:54;93446.28;;;12.90;50.77
20009;BME280;10165;42.662;23.260;2023-04-03T08:03:20;93446.63;;;12.85;50.06
20009;BME280;10165;42.662;23.260;2023-04-03T08:05:48;93455.16;;;12.47;51.95
20009;BME280;10165;42.662;23.260;2023-04-03T08:08:18;93452.22;;;12.63;51.19
20009;BME280;10165;42.662;23.260;2023-04-03T08:10:53;93447.41;;;12.31;52.05
20009;BME280;10165;42.662;23.260;2023-04-03T08:13:21;93449.66;;;11.85;54.06
20009;BME280;10165;42.662;23.260;2023-04-03T08:15:48;93450.28;;;12.56;52.22
20009;BME280;10165;42.662;23.260;2023-04-03T08:18:15;93445.47;;;12.79;51.25
20009;BME280;10165;42.662;23.260;2023-04-03T08:20:42;93447.78;;;12.88;51.34
20009;BME280;10165;42.662;23.260;2023-04-03T08:23:10;93439.16;;;13.19;50.83
20009;BME280;10165;42.662;23.260;2023-04-03T08:25:39;93446.53;;;12.71;51.24
20009;BME280;10165;42.662;23.260;2023-04-03T08:28:06;93444.69;;;13.51;49.42
20009;BME280;10165;42.662;23.260;2023-04-03T08:30:34;93438.94;;;13.56;48.68
20009;BME280;10165;42.662;23.260;2023-04-03T08:33:01;93448.56;;;12.92;50.27
20009;BME280;10165;42.662;23.260;2023-04-03T08:35:29;93434.06;;;12.97;49.96
20009;BME280;10165;42.662;23.260;2023-04-03T08:37:56;93433.53;;;12.19;52.46
20009;BME280;10165;42.662;23.260;2023-04-03T08:40:23;93434.41;;;12.30;51.88
20009;BME280;10165;42.662;23.260;2023-04-03T08:42:57;93424.88;;;13.01;50.77
20009;BME280;10165;42.662;23.260;2023-04-03T08:45:48;93429.22;;;11.70;53.09
20009;BME280;10165;42.662;23.260;2023-04-03T08:48:46;93423.75;;;12.40;52.26
20009;BME280;10165;42.662;23.260;2023-04-03T08:51:20;93421.19;;;13.27;50.21
20009;BME280;10165;42.662;23.260;2023-04-03T08:54:01;93420.84;;;13.32;50.53
20009;BME280;10165;42.662;23.260;2023-04-03T08:56:31;93416.69;;;13.49;50.54
20009;BME280;10165;42.662;23.260;2023-04-03T08:59:06;93411.44;;;14.33;48.38
20009;BME280;10165;42.662;23.260;2023-04-03T09:01:39;93406.69;;;13.46;48.41
20009;BME280;10165;42.662;23.260;2023-04-03T09:04:16;93401.84;;;12.89;50.55
20009;BME280;10165;42.662;23.260;2023-04-03T09:06:54;93396.56;;;13.04;50.80
20009;BME280;10165;42.662;23.260;2023-04-03T09:15:01;93379.97;;;13.95;48.54
20009;BME280;10165;42.662;23.260;2023-04-03T09:20:26;93371.53;;;14.00;47.74
20009;BME280;10165;42.662;23.260;2023-04-03T09:22:58;93382.28;;;14.32;47.68
20009;BME280;10165;42.662;23.260;2023-04-03T09:25:32;93371.53;;;14.14;47.99
20009;BME280;10165;42.662;23.260;2023-04-03T09:28:00;93368.06;;;14.28;47.63
20009;BME280;10165;42.662;23.260;2023-04-03T09:30:36;93363.06;;;13.80;48.05
20009;BME280;10165;42.662;23.260;2023-04-03T09:33:05;93369.97;;;13.57;48.24
20009;BME280;10165;42.662;23.260;2023-04-03T09:35:35;93351.56;;;14.54;47.25
20009;BME280;10165;42.662;23.260;2023-04-03T09:41:09;93351.06;;;14.98;44.77
20009;BME280;10165;42.662;23.260;2023-04-03T09:43:51;93346.84;;;14.94;46.03
20009;BME280;10165;42.662;23.260;2023-04-03T09:46:30;93349.13;;;14.99;43.68
20009;BME280;10165;42.662;23.260;2023-04-03T09:49:00;93347.38;;;14.39;45.08
20009;BME280;10165;42.662;23.260;2023-04-03T09:51:35;93340.06;;;14.08;45.38
20009;BME280;10165;42.662;23.260;2023-04-03T09:56:53;93340.47;;;14.38;44.15
20009;BME280;10165;42.662;23.260;2023-04-03T09:59:22;93339.31;;;14.25;44.31
20009;BME280;10165;42.662;23.260;2023-04-03T10:02:32;93330.84;;;14.55;43.36
20009;BME280;10165;42.662;23.260;2023-04-03T10:05:02;93330.47;;;14.46;44.42
20009;BME280;10165;42.662;23.260;2023-04-03T10:07:34;93327.97;;;15.08;42.68
20009;BME280;10165;42.662;23.260;2023-04-03T10:10:23;93325.09;;;14.31;43.98
20009;BME280;10165;42.662;23.260;2023-04-03T10:13:27;93328.44;;;14.89;43.31
20009;BME280;10165;42.662;23.260;2023-04-03T10:16:21;93330.09;;;13.76;44.74
20009;BME280;10165;42.662;23.260;2023-04-03T10:19:03;93330.06;;;13.45;46.14
20009;BME280;10165;42.662;23.260;2023-04-03T10:21:48;93333.94;;;14.07;45.24
20009;BME280;10165;42.662;23.260;2023-04-03T10:34:44;93302.50;;;13.79;46.37
20009;BME280;10165;42.662;23.260;2023-04-03T10:37:37;93311.66;;;13.25;47.12
20009;BME280;10165;42.662;23.260;2023-04-03T10:40:23;93303.13;;;14.79;44.34
20009;BME280;10165;42.662;23.260;2023-04-03T10:43:02;93294.06;;;13.84;45.56
20009;BME280;10165;42.662;23.260;2023-04-03T10:51:00;93295.56;;;14.21;44.47
20009;BME280;10165;42.662;23.260;2023-04-03T10:53:56;93290.56;;;14.41;44.54
20009;BME280;10165;42.662;23.260;2023-04-03T10:59:18;93288.25;;;14.32;45.21
20009;BME280;10165;42.662;23.260;2023-04-03T11:02:00;93296.28;;;14.53;45.94
20009;BME280;10165;42.662;23.260;2023-04-03T11:04:31;93300.78;;;14.88;46.44
20009;BME280;10165;42.662;23.260;2023-04-03T11:07:08;93314.34;;;13.43;49.86
20009;BME280;10165;42.662;23.260;2023-04-03T11:09:41;93306.31;;;13.54;50.66
20009;BME280;10165;42.662;23.260;2023-04-03T11:12:18;93310.09;;;13.24;52.32
20009;BME280;10165;42.662;23.260;2023-04-03T11:14:49;93310.13;;;14.34;51.17
20009;BME280;10165;42.662;23.260;2023-04-03T11:20:02;93305.94;;;13.69;54.17
20009;BME280;10165;42.662;23.260;2023-04-03T11:22:39;93300.97;;;14.10;53.50
20009;BME280;10165;42.662;23.260;2023-04-03T11:27:47;93308.88;;;13.08;58.28
20009;BME280;10165;42.662;23.260;2023-04-03T11:33:03;93307.84;;;13.40;60.43
20009;BME280;10165;42.662;23.260;2023-04-03T11:35:32;93307.78;;;13.16;61.73
20009;BME280;10165;42.662;23.260;2023-04-03T11:38:01;93310.91;;;11.80;65.93
20009;BME280;10165;42.662;23.260;2023-04-03T11:40:34;93299.34;;;13.14;64.69
20009;BME280;10165;42.662;23.260;2023-04-03T11:43:06;93313.78;;;12.16;66.37
20009;BME280;10165;42.662;23.260;2023-04-03T11:45:36;93303.00;;;12.70;67.25
20009;BME280;10165;42.662;23.260;2023-04-03T11:53:49;93297.81;;;12.26;69.84
20009;BME280;10165;42.662;23.260;2023-04-03T11:59:16;93300.53;;;13.34;66.51
20009;BME280;10165;42.662;23.260;2023-04-03T12:02:00;93303.84;;;12.88;66.64
20009;BME280;10165;42.662;23.260;2023-04-03T12:04:31;93314.47;;;11.98;70.35
20009;BME280;10165;42.662;23.260;2023-04-03T12:07:19;93309.78;;;11.88;73.29
20009;BME280;10165;42.662;23.260;2023-04-03T12:12:40;93309.41;;;11.86;71.31
20009;BME280;10165;42.662;23.260;2023-04-03T12:33:13;93274.16;;;12.42;71.39
20009;BME280;10165;42.662;23.260;2023-04-03T12:36:25;93267.91;;;12.14;71.25
20009;BME280;10165;42.662;23.260;2023-04-03T12:45:29;93247.38;;;11.26;76.57
20009;BME280;10165;42.662;23.260;2023-04-03T12:48:27;93237.31;;;11.57;74.42
20009;BME280;10165;42.662;23.260;2023-04-03T12:51:05;93232.09;;;10.86;75.85
20009;BME280;10165;42.662;23.260;2023-04-03T12:53:49;93239.34;;;11.23;76.62
20009;BME280;10165;42.662;23.260;2023-04-03T12:56:31;93241.44;;;11.03;77.64
20009;BME280;10165;42.662;23.260;2023-04-03T12:59:33;93240.31;;;11.51;76.22
20009;BME280;10165;42.662;23.260;2023-04-03T13:02:28;93237.75;;;11.18;76.26
20009;BME280;10165;42.662;23.260;2023-04-03T13:05:18;93240.91;;;11.31;77.01
20009;BME280;10165;42.662;23.260;2023-04-03T13:08:09;93240.44;;;11.18;76.81
20009;BME280;10165;42.662;23.260;2023-04-03T13:10:55;93245.16;;;10.91;78.66
20009;BME280;10165;42.662;23.260;2023-04-03T13:13:38;93225.53;;;11.17;79.24
20009;BME280;10165;42.662;23.260;2023-04-03T13:16:10;93237.25;;;10.65;80.44
20009;BME280;10165;42.662;23.260;2023-04-03T13:18:45;93234.59;;;10.35;82.53
20009;BME280;10165;42.662;23.260;2023-04-03T13:21:33;93227.25;;;11.43;78.70
20009;BME280;10165;42.662;23.260;2023-04-03T13:24:07;93219.72;;;11.56;77.72
20009;BME280;10165;42.662;23.260;2023-04-03T13:26:42;93217.63;;;11.82;75.71
20009;BME280;10165;42.662;23.260;2023-04-03T13:29:28;93208.25;;;12.13;74.44
20009;BME280;10165;42.662;23.260;2023-04-03T13:31:58;93217.66;;;11.38;77.73
20009;BME280;10165;42.662;23.260;2023-04-03T13:34:29;93217.59;;;10.84;80.10
20009;BME280;10165;42.662;23.260;2023-04-03T13:37:02;93223.38;;;10.19;81.75
20009;BME280;10165;42.662;23.260;2023-04-03T13:39:34;93223.22;;;10.75;81.17
20009;BME280;10165;42.662;23.260;2023-04-03T13:42:23;93221.31;;;10.76;81.76
20009;BME280;10165;42.662;23.260;2023-04-03T13:45:19;93216.28;;;11.55;77.75
20009;BME280;10165;42.662;23.260;2023-04-03T13:47:48;93213.94;;;11.02;78.38
20009;BME280;10165;42.662;23.260;2023-04-03T13:50:24;93213.03;;;10.84;81.14
20009;BME280;10165;42.662;23.260;2023-04-03T13:52:54;93213.47;;;10.53;81.43
20009;BME280;10165;42.662;23.260;2023-04-03T14:03:03;93204.75;;;10.60;78.51
20009;BME280;10165;42.662;23.260;2023-04-03T14:05:37;93197.84;;;10.55;78.08
20009;BME280;10165;42.662;23.260;2023-04-03T14:08:07;93212.72;;;10.23;79.42
20009;BME280;10165;42.662;23.260;2023-04-03T14:10:36;93214.28;;;9.97;80.90
20009;BME280;10165;42.662;23.260;2023-04-03T14:13:04;93202.59;;;10.39;80.38
20009;BME280;10165;42.662;23.260;2023-04-03T14:15:31;93201.56;;;10.84;78.01
20009;BME280;10165;42.662;23.260;2023-04-03T14:17:58;93208.59;;;10.29;79.42
20009;BME280;10165;42.662;23.260;2023-04-03T14:20:28;93204.41;;;11.01;77.03
20009;BME280;10165;42.662;23.260;2023-04-03T14:22:55;93199.28;;;9.59;82.78
20009;BME280;10165;42.662;23.260;2023-04-03T14:25:22;93197.09;;;10.58;79.39
20009;BME280;10165;42.662;23.260;2023-04-03T14:27:51;93199.84;;;9.72;80.63
20009;BME280;10165;42.662;23.260;2023-04-03T14:30:27;93193.72;;;10.28;78.81
20009;BME280;10165;42.662;23.260;2023-04-03T14:32:55;93189.56;;;10.30;79.00
20009;BME280;10165;42.662;23.260;2023-04-03T14:35:23;93184.81;;;10.87;76.95
20009;BME280;10165;42.662;23.260;2023-04-03T14:37:54;93183.63;;;11.32;75.58